createdAt,value
2019-03-11T00:00:27.901Z,15.23
2019-03-11T00:02:56.994Z,15.77
2019-03-11T00:05:26.051Z,14.83
2019-03-11T00:07:55.112Z,13.97
2019-03-11T00:10:24.207Z,13.70
2019-03-11T00:12:53.374Z,13.17
2019-03-11T00:15:22.489Z,11.90
2019-03-11T00:17:51.532Z,11.90
2019-03-11T00:20:20.604Z,10.37
2019-03-11T00:22:49.699Z,10.10
2019-03-11T00:25:18.989Z,9.43
2019-03-11T00:27:48.071Z,9.83
2019-03-11T00:30:17.146Z,9.23
2019-03-11T00:32:46.233Z,8.67
2019-03-11T00:35:15.281Z,8.17
2019-03-11T00:37:44.406Z,9.40
2019-03-11T00:40:14.926Z,8.27
2019-03-11T00:42:43.993Z,8.47
2019-03-11T00:45:14.217Z,8.37
2019-03-11T00:47:43.262Z,9.17
2019-03-11T00:50:13.133Z,9.27
2019-03-11T00:52:42.293Z,9.13
2019-03-11T00:55:12.237Z,9.37
2019-03-11T00:57:41.321Z,9.13
2019-03-11T01:00:16.522Z,10.03
2019-03-11T01:02:45.556Z,8.70
2019-03-11T01:05:14.653Z,9.03
2019-03-11T01:07:43.960Z,9.17
2019-03-11T01:10:13.377Z,10.33
2019-03-11T01:12:42.495Z,9.43
2019-03-11T01:15:11.667Z,10.00
2019-03-11T01:17:40.751Z,10.07
2019-03-11T01:20:11.599Z,9.47
2019-03-11T01:22:41.650Z,10.27
2019-03-11T01:25:11.985Z,9.70
2019-03-11T01:27:41.029Z,10.60
2019-03-11T01:30:12.528Z,9.50
2019-03-11T01:32:41.645Z,9.43
2019-03-11T01:35:10.720Z,10.27
2019-03-11T01:37:39.853Z,9.93
2019-03-11T01:40:18.515Z,9.03
2019-03-11T01:42:47.646Z,9.93
2019-03-11T01:45:17.705Z,10.10
2019-03-11T01:47:46.760Z,10.17
2019-03-11T01:50:16.174Z,10.53
2019-03-11T01:52:45.217Z,10.63
2019-03-11T01:55:14.385Z,10.37
2019-03-11T01:57:43.437Z,10.27
2019-03-11T02:00:16.639Z,8.97
2019-03-11T02:02:45.806Z,10.37
2019-03-11T02:05:14.958Z,11.60
2019-03-11T02:07:44.053Z,9.63
2019-03-11T02:10:19.401Z,10.57
2019-03-11T02:12:48.460Z,9.97
2019-03-11T02:15:18.481Z,9.60
2019-03-11T02:17:47.822Z,9.47
2019-03-11T02:20:17.813Z,9.73
2019-03-11T02:22:46.882Z,8.93
2019-03-11T02:25:15.921Z,9.77
2019-03-11T02:27:45.264Z,8.50
2019-03-11T02:30:16.543Z,8.40
2019-03-11T02:32:45.952Z,8.57
2019-03-11T02:35:29.835Z,7.67
2019-03-11T02:37:58.923Z,8.83
2019-03-11T02:40:28.000Z,8.03
2019-03-11T02:42:57.045Z,7.53
2019-03-11T02:45:26.100Z,8.23
2019-03-11T02:47:55.527Z,8.07
2019-03-11T02:50:25.108Z,7.70
2019-03-11T02:52:54.190Z,8.57
2019-03-11T02:55:23.494Z,7.60
2019-03-11T02:57:52.544Z,7.27
2019-03-11T03:00:21.884Z,6.57
2019-03-11T03:03:08.925Z,5.60
2019-03-11T03:05:45.929Z,5.13
2019-03-11T03:08:15.003Z,5.23
2019-03-11T03:10:44.052Z,5.30
2019-03-11T03:13:13.098Z,5.27
2019-03-11T03:15:42.142Z,5.37
2019-03-11T03:18:11.215Z,4.17
2019-03-11T03:20:40.334Z,4.50
2019-03-11T03:23:09.412Z,3.97
2019-03-11T03:25:38.471Z,3.80
2019-03-11T03:28:07.786Z,4.77
2019-03-11T03:30:37.054Z,4.60
2019-03-11T03:33:06.198Z,5.10
2019-03-11T03:35:35.344Z,4.67
2019-03-11T03:38:04.421Z,5.30
2019-03-11T03:40:33.558Z,5.10
2019-03-11T03:43:02.755Z,4.47
2019-03-11T03:45:39.979Z,5.27
2019-03-11T03:48:09.239Z,5.60
2019-03-11T03:50:39.522Z,5.13
2019-03-11T03:53:08.742Z,4.83
2019-03-11T03:55:37.817Z,5.13
2019-03-11T03:58:06.974Z,5.80
2019-03-11T04:00:36.110Z,6.10
2019-03-11T04:03:05.183Z,5.63
2019-03-11T04:05:34.292Z,5.37
2019-03-11T04:08:03.371Z,6.53
2019-03-11T04:10:33.225Z,6.50
2019-03-11T04:13:02.494Z,6.70
2019-03-11T04:15:31.647Z,7.00
2019-03-11T04:18:00.807Z,6.77
2019-03-11T04:20:29.943Z,7.27
2019-03-11T04:22:59.111Z,6.83
2019-03-11T04:25:29.280Z,7.03
2019-03-11T04:27:58.697Z,6.60
2019-03-11T04:30:28.633Z,7.73
2019-03-11T04:32:57.686Z,7.30
2019-03-11T04:35:26.765Z,7.33
2019-03-11T04:37:55.910Z,8.30
2019-03-11T04:40:24.953Z,7.70
2019-03-11T04:42:54.019Z,9.20
2019-03-11T04:45:23.097Z,8.77
2019-03-11T04:47:52.185Z,9.13
2019-03-11T04:50:21.542Z,9.57
2019-03-11T04:52:50.622Z,9.97
2019-03-11T04:55:19.706Z,10.17
2019-03-11T04:57:54.197Z,10.27
2019-03-11T05:00:33.210Z,11.10
2019-03-11T05:03:02.283Z,11.17
2019-03-11T05:05:31.359Z,11.77
2019-03-11T05:08:00.410Z,11.90
2019-03-11T05:10:29.529Z,11.80
2019-03-11T05:12:58.618Z,12.43
2019-03-11T05:15:27.700Z,11.70
2019-03-11T05:17:56.780Z,11.20
2019-03-11T05:20:25.890Z,10.57
2019-03-11T05:22:55.157Z,10.20
2019-03-11T05:25:24.221Z,10.03
2019-03-11T05:27:53.298Z,11.27
2019-03-11T05:30:22.387Z,9.77
2019-03-11T05:32:51.463Z,9.40
2019-03-11T05:35:20.509Z,9.80
2019-03-11T05:37:49.561Z,9.43
2019-03-11T05:40:19.450Z,8.93
2019-03-11T05:42:48.540Z,9.03
2019-03-11T05:45:18.319Z,8.67
2019-03-11T05:47:47.364Z,9.57
2019-03-11T05:50:17.273Z,8.47
2019-03-11T05:52:46.364Z,8.67
2019-03-11T05:55:15.469Z,8.33
2019-03-11T05:57:44.525Z,8.33
2019-03-11T06:00:22.567Z,9.17
2019-03-11T06:02:51.700Z,7.27
2019-03-11T06:05:20.778Z,7.13
2019-03-11T06:07:49.821Z,7.20
2019-03-11T06:10:18.902Z,7.43
2019-03-11T06:12:48.050Z,6.80
2019-03-11T06:15:18.086Z,6.57
2019-03-11T06:17:47.283Z,6.97
2019-03-11T06:20:24.473Z,6.70
2019-03-11T06:22:53.617Z,6.20
2019-03-11T06:25:22.736Z,6.97
2019-03-11T06:27:51.776Z,7.47
2019-03-11T06:30:21.382Z,6.93
2019-03-11T06:32:50.463Z,6.43
2019-03-11T06:35:19.606Z,6.50
2019-03-11T06:37:48.676Z,5.67
2019-03-11T06:40:17.761Z,7.30
2019-03-11T06:42:46.873Z,7.60
2019-03-11T06:45:15.950Z,6.77
2019-03-11T06:47:44.988Z,7.27
2019-03-11T06:50:14.818Z,7.03
2019-03-11T06:52:43.907Z,6.87
2019-03-11T06:55:13.110Z,7.30
2019-03-11T06:57:42.188Z,7.07
2019-03-11T07:00:14.605Z,7.27
2019-03-11T07:02:43.756Z,6.30
2019-03-11T07:05:20.087Z,7.30
2019-03-11T07:07:43.653Z,7.07
2019-03-11T07:10:14.907Z,7.10
2019-03-11T07:12:43.952Z,6.97
2019-03-11T07:15:14.239Z,8.80
2019-03-11T07:17:43.360Z,7.83
2019-03-11T07:20:16.378Z,8.10
2019-03-11T07:22:45.878Z,8.33
2019-03-11T07:25:14.949Z,7.00
2019-03-11T07:27:44.106Z,7.67
2019-03-11T07:30:17.800Z,7.27
2019-03-11T07:32:46.886Z,7.17
2019-03-11T07:35:16.020Z,6.97
2019-03-11T07:37:45.078Z,6.97
2019-03-11T07:40:29.363Z,8.17
2019-03-11T07:42:48.794Z,6.80
2019-03-11T07:45:17.843Z,6.87
2019-03-11T07:47:46.888Z,6.40
2019-03-11T07:50:16.893Z,7.03
2019-03-11T07:52:45.932Z,6.53
2019-03-11T07:55:14.980Z,6.97
2019-03-11T07:57:44.271Z,6.50
2019-03-11T08:00:18.329Z,7.53
2019-03-11T08:02:47.469Z,7.43
2019-03-11T08:05:16.547Z,6.63
2019-03-11T08:07:45.684Z,5.73
2019-03-11T08:10:25.578Z,6.60
2019-03-11T08:12:54.629Z,6.40
2019-03-11T08:15:23.684Z,5.50
2019-03-11T08:17:52.775Z,6.93
2019-03-11T08:20:21.892Z,6.67
2019-03-11T08:22:50.969Z,5.43
2019-03-11T08:25:20.046Z,5.37
2019-03-11T08:27:49.114Z,5.47
2019-03-11T08:30:21.789Z,5.57
2019-03-11T08:32:50.905Z,6.00
2019-03-11T08:35:19.965Z,5.70
2019-03-11T08:37:49.009Z,5.13
2019-03-11T08:40:20.199Z,5.20
2019-03-11T08:42:49.428Z,4.90
2019-03-11T08:45:20.502Z,4.90
2019-03-11T08:47:49.640Z,4.87
2019-03-11T08:50:18.722Z,4.57
2019-03-11T08:52:47.784Z,4.20
2019-03-11T08:55:16.854Z,4.47
2019-03-11T08:57:45.894Z,4.13
2019-03-11T09:00:22.062Z,3.63
2019-03-11T09:02:51.186Z,3.87
2019-03-11T09:05:20.246Z,4.30
2019-03-11T09:07:49.317Z,3.23
2019-03-11T09:10:18.996Z,3.13
2019-03-11T09:12:48.119Z,3.30
2019-03-11T09:15:19.273Z,3.47
2019-03-11T09:17:48.392Z,3.67
2019-03-11T09:20:18.085Z,3.40
2019-03-11T09:22:47.230Z,3.23
2019-03-11T09:25:23.857Z,3.03
2019-03-11T09:27:53.098Z,2.80
2019-03-11T09:30:22.937Z,3.10
2019-03-11T09:32:52.192Z,3.77
2019-03-11T09:35:21.233Z,2.70
2019-03-11T09:37:50.306Z,3.27
2019-03-11T09:40:23.069Z,3.20
2019-03-11T09:42:52.112Z,3.50
2019-03-11T09:45:23.941Z,2.87
2019-03-11T09:47:51.984Z,2.80
2019-03-11T09:50:21.066Z,2.77
2019-03-11T09:52:50.273Z,3.20
2019-03-11T09:55:26.597Z,2.87
2019-03-11T09:57:55.734Z,2.50
2019-03-11T10:00:32.669Z,3.20
2019-03-11T10:03:01.778Z,3.10
2019-03-11T10:05:30.847Z,3.10
2019-03-11T10:07:59.944Z,3.27
2019-03-11T10:10:29.981Z,2.00
2019-03-11T10:12:59.444Z,2.87
2019-03-11T10:15:28.808Z,2.60
2019-03-11T10:17:57.873Z,3.37
2019-03-11T10:20:26.915Z,2.50
2019-03-11T10:22:55.953Z,2.77
2019-03-11T10:25:25.030Z,2.57
2019-03-11T10:27:54.102Z,3.57
2019-03-11T10:30:24.197Z,2.90
2019-03-11T10:32:53.335Z,3.00
2019-03-11T10:35:37.617Z,3.40
2019-03-11T10:37:53.190Z,2.93
2019-03-11T10:40:24.722Z,3.27
2019-03-11T10:42:54.022Z,3.17
2019-03-11T10:45:30.960Z,2.73
2019-03-11T10:47:54.074Z,3.10
2019-03-11T10:50:23.155Z,2.87
2019-03-11T10:52:52.199Z,3.20
2019-03-11T10:55:24.537Z,3.57
2019-03-11T10:57:53.614Z,3.20
2019-03-11T11:00:25.361Z,3.50
2019-03-11T11:02:54.798Z,4.27
2019-03-11T11:05:23.845Z,4.77
2019-03-11T11:07:52.984Z,4.63
2019-03-11T11:10:22.023Z,5.00
2019-03-11T11:12:51.114Z,5.10
2019-03-11T11:15:31.591Z,4.47
2019-03-11T11:18:00.633Z,5.00
2019-03-11T11:20:30.014Z,4.70
2019-03-11T11:22:59.418Z,4.70
2019-03-11T11:25:29.405Z,5.00
2019-03-11T11:27:58.473Z,5.30
2019-03-11T11:30:31.745Z,6.07
2019-03-11T11:33:00.823Z,5.00
2019-03-11T11:35:29.911Z,5.13
2019-03-11T11:37:59.054Z,5.57
2019-03-11T11:40:31.475Z,5.03
2019-03-11T11:43:00.584Z,5.23
2019-03-11T11:45:31.111Z,5.63
2019-03-11T11:48:00.186Z,5.73
2019-03-11T11:50:29.232Z,4.70
2019-03-11T11:52:58.310Z,3.63
2019-03-11T11:55:27.699Z,4.27
2019-03-11T11:57:56.785Z,4.80
2019-03-11T12:00:31.231Z,4.27
2019-03-11T12:03:00.338Z,4.83
2019-03-11T12:05:29.422Z,5.77
2019-03-11T12:07:58.494Z,4.93
2019-03-11T12:10:32.389Z,4.03
2019-03-11T12:13:01.461Z,5.33
2019-03-11T12:15:30.543Z,4.87
2019-03-11T12:17:59.581Z,5.80
2019-03-11T12:20:31.812Z,5.50
2019-03-11T12:23:00.932Z,6.40
2019-03-11T12:25:30.023Z,5.57
2019-03-11T12:27:59.093Z,5.03
2019-03-11T12:30:32.122Z,5.27
2019-03-11T12:33:01.225Z,5.53
2019-03-11T12:35:30.297Z,5.07
2019-03-11T12:37:59.386Z,4.60
2019-03-11T12:40:28.432Z,5.50
2019-03-11T12:42:57.475Z,5.00
2019-03-11T12:45:26.893Z,4.87
2019-03-11T12:47:55.977Z,5.33
2019-03-11T12:50:27.323Z,4.80
2019-03-11T12:52:56.404Z,4.40
2019-03-11T12:55:25.448Z,5.27
2019-03-11T12:57:54.528Z,5.67
2019-03-11T13:00:24.505Z,4.53
2019-03-11T13:02:53.560Z,3.90
2019-03-11T13:05:22.635Z,5.63
2019-03-11T13:07:51.672Z,4.00
2019-03-11T13:10:30.893Z,4.00
2019-03-11T13:12:59.950Z,4.50
2019-03-11T13:15:29.113Z,3.30
2019-03-11T13:18:17.960Z,4.00
2019-03-11T13:20:47.046Z,4.83
2019-03-11T13:23:16.090Z,4.13
2019-03-11T13:25:45.394Z,4.47
2019-03-11T13:28:14.712Z,4.37
2019-03-11T13:30:43.802Z,5.20
2019-03-11T13:33:12.946Z,4.03
2019-03-11T13:35:42.042Z,3.80
2019-03-11T13:38:11.542Z,4.43
2019-03-11T13:40:40.838Z,2.97
2019-03-11T13:43:10.175Z,3.33
2019-03-11T13:45:39.217Z,3.17
2019-03-11T13:48:08.286Z,2.80
2019-03-11T13:50:37.361Z,3.70
2019-03-11T13:53:06.402Z,3.17
2019-03-11T13:55:35.478Z,2.50
2019-03-11T13:58:04.526Z,2.50
2019-03-11T14:00:33.614Z,2.20
2019-03-11T14:03:02.698Z,2.87
2019-03-11T14:05:31.725Z,2.87
2019-03-11T14:08:00.769Z,2.63
2019-03-11T14:10:29.813Z,2.40
2019-03-11T14:12:58.850Z,2.87
2019-03-11T14:15:27.928Z,2.30
2019-03-11T14:17:56.964Z,2.23
2019-03-11T14:20:26.017Z,2.50
2019-03-11T14:22:55.056Z,2.40
2019-03-11T14:25:24.176Z,2.33
2019-03-11T14:27:53.249Z,2.30
2019-03-11T14:30:23.136Z,2.40
2019-03-11T14:32:52.248Z,1.60
2019-03-11T14:35:21.308Z,3.03
2019-03-11T14:37:50.403Z,1.33
2019-03-11T14:40:20.510Z,1.57
2019-03-11T14:42:49.590Z,1.87
2019-03-11T14:45:20.002Z,1.73
2019-03-11T14:47:49.062Z,2.43
2019-03-11T14:50:18.681Z,2.90
2019-03-11T14:52:47.726Z,2.63
2019-03-11T14:55:16.845Z,2.30
2019-03-11T14:57:46.257Z,2.47
2019-03-11T15:00:19.825Z,2.77
2019-03-11T15:02:48.889Z,3.10
2019-03-11T15:05:18.665Z,3.10
2019-03-11T15:07:47.821Z,3.03
2019-03-11T15:10:17.958Z,3.47
2019-03-11T15:12:47.098Z,3.80
2019-03-11T15:15:18.788Z,3.60
2019-03-11T15:17:47.833Z,3.47
2019-03-11T15:20:16.912Z,3.90
2019-03-11T15:22:46.031Z,4.80
2019-03-11T15:25:15.473Z,4.37
2019-03-11T15:27:44.534Z,3.70
2019-03-11T15:30:16.401Z,4.17
2019-03-11T15:32:45.485Z,3.90
2019-03-11T15:35:14.561Z,3.70
2019-03-11T15:37:43.637Z,3.80
2019-03-11T15:40:14.133Z,3.90
2019-03-11T15:42:43.198Z,4.10
2019-03-11T15:45:14.247Z,3.53
2019-03-11T15:47:43.686Z,4.10
2019-03-11T15:50:15.560Z,3.83
2019-03-11T15:52:44.611Z,4.47
2019-03-11T15:55:15.343Z,5.33
2019-03-11T15:57:44.373Z,5.47
2019-03-11T16:00:15.867Z,6.50
2019-03-11T16:02:44.911Z,5.90
2019-03-11T16:05:14.240Z,4.03
2019-03-11T16:07:43.395Z,4.03
2019-03-11T16:10:17.119Z,3.90
2019-03-11T16:12:45.154Z,4.00
2019-03-11T16:15:15.249Z,4.27
2019-03-11T16:17:44.334Z,4.10
2019-03-11T16:20:16.731Z,3.43
2019-03-11T16:22:45.770Z,2.40
2019-03-11T16:25:14.824Z,2.10
2019-03-11T16:27:43.909Z,2.37
2019-03-11T16:30:18.365Z,2.20
2019-03-11T16:32:58.495Z,2.33
2019-03-11T16:35:18.613Z,2.37
2019-03-11T16:37:47.694Z,2.40
2019-03-11T16:40:16.751Z,2.03
2019-03-11T16:42:45.822Z,2.40
2019-03-11T16:45:17.965Z,2.50
2019-03-11T16:47:47.637Z,2.50
2019-03-11T16:50:21.111Z,3.00
2019-03-11T16:52:50.153Z,2.90
2019-03-11T16:55:24.684Z,3.33
2019-03-11T16:57:53.970Z,3.77
2019-03-11T17:00:30.871Z,3.63
2019-03-11T17:03:00.013Z,3.30
2019-03-11T17:05:29.054Z,3.30
2019-03-11T17:07:58.409Z,3.20
2019-03-11T17:10:27.519Z,5.20
2019-03-11T17:12:56.681Z,6.30
2019-03-11T17:15:25.926Z,3.67
2019-03-11T17:17:55.033Z,4.27
2019-03-11T17:20:24.080Z,4.40
2019-03-11T17:22:53.157Z,5.00
2019-03-11T17:25:22.196Z,4.53
2019-03-11T17:27:51.254Z,5.47
2019-03-11T17:30:26.365Z,6.23
2019-03-11T17:32:56.232Z,3.70
2019-03-11T17:35:25.310Z,8.30
2019-03-11T17:37:54.383Z,17.03
2019-03-11T17:40:24.276Z,6.27
2019-03-11T17:42:53.463Z,6.10
2019-03-11T17:45:22.570Z,6.37
2019-03-11T17:47:51.686Z,5.53
2019-03-11T17:50:21.923Z,7.10
2019-03-11T17:52:51.064Z,5.60
2019-03-11T17:55:20.614Z,4.60
2019-03-11T17:57:50.054Z,4.93
2019-03-11T18:00:25.752Z,6.03
2019-03-11T18:02:55.125Z,5.40
2019-03-11T18:05:24.233Z,5.10
2019-03-11T18:07:53.311Z,5.77
2019-03-11T18:10:22.353Z,5.63
2019-03-11T18:12:51.708Z,4.97
2019-03-11T18:15:21.931Z,6.13
2019-03-11T18:17:51.078Z,3.40
2019-03-11T18:20:21.388Z,4.00
2019-03-11T18:22:50.431Z,4.00
2019-03-11T18:25:20.442Z,4.10
2019-03-11T18:27:49.511Z,5.60
2019-03-11T18:30:23.603Z,4.40
2019-03-11T18:32:52.760Z,4.73
2019-03-11T18:35:33.805Z,4.77
2019-03-11T18:38:04.422Z,5.23
2019-03-11T18:40:32.685Z,4.30
2019-03-11T18:43:01.820Z,3.53
2019-03-11T18:45:30.984Z,4.03
2019-03-11T18:48:01.023Z,4.47
2019-03-11T18:50:42.967Z,4.23
2019-03-11T18:53:12.038Z,4.73
2019-03-11T18:55:41.146Z,4.60
2019-03-11T18:58:10.187Z,4.50
2019-03-11T19:00:39.331Z,4.00
2019-03-11T19:03:08.407Z,4.23
2019-03-11T19:05:37.582Z,3.83
2019-03-11T19:08:14.681Z,4.10
2019-03-11T19:10:43.825Z,4.80
2019-03-11T19:13:12.979Z,4.70
2019-03-11T19:15:42.092Z,4.47
2019-03-11T19:18:11.201Z,4.93
2019-03-11T19:20:40.532Z,4.77
2019-03-11T19:23:13.779Z,5.30
2019-03-11T19:25:42.830Z,5.97
2019-03-11T19:28:11.988Z,6.77
2019-03-11T19:30:41.065Z,6.50
2019-03-11T19:33:11.194Z,7.50
2019-03-11T19:35:40.471Z,7.80
2019-03-11T19:38:09.640Z,9.13
2019-03-11T19:40:38.827Z,8.33
2019-03-11T19:43:07.921Z,8.50
2019-03-11T19:45:36.984Z,8.60
2019-03-11T19:48:06.095Z,10.10
2019-03-11T19:50:35.315Z,9.67
2019-03-11T19:53:04.604Z,11.57
2019-03-11T19:55:35.479Z,10.17
2019-03-11T19:58:05.197Z,10.17
2019-03-11T20:00:34.383Z,10.13
2019-03-11T20:03:03.465Z,11.83
2019-03-11T20:05:33.418Z,11.57
2019-03-11T20:08:02.531Z,12.57
2019-03-11T20:10:31.684Z,11.70
2019-03-11T20:13:00.892Z,10.70
2019-03-11T20:15:29.997Z,11.77
2019-03-11T20:17:59.157Z,11.17
2019-03-11T20:20:28.393Z,13.83
2019-03-11T20:22:57.791Z,17.93
2019-03-11T20:25:29.181Z,12.20
2019-03-11T20:27:58.429Z,12.07
2019-03-11T20:30:27.529Z,12.07
2019-03-11T20:32:56.796Z,18.53
2019-03-11T20:35:26.545Z,15.80
2019-03-11T20:37:55.754Z,16.50
2019-03-11T20:40:25.189Z,32.20
2019-03-11T20:42:54.294Z,15.03
2019-03-11T20:45:23.379Z,15.03
2019-03-11T20:47:52.670Z,14.23
2019-03-11T20:50:21.786Z,14.07
2019-03-11T20:52:50.984Z,14.67
2019-03-11T20:55:20.595Z,15.77
2019-03-11T20:57:49.754Z,13.37
2019-03-11T21:00:22.734Z,15.03
2019-03-11T21:02:51.963Z,17.00
2019-03-11T21:05:30.940Z,13.80
2019-03-11T21:08:00.090Z,15.03
2019-03-11T21:10:29.247Z,11.67
2019-03-11T21:12:58.435Z,12.37
2019-03-11T21:15:27.586Z,12.10
2019-03-11T21:17:56.720Z,12.30
2019-03-11T21:20:25.826Z,16.10
2019-03-11T21:22:56.886Z,13.00
2019-03-11T21:25:26.102Z,16.50
2019-03-11T21:27:55.282Z,17.53
2019-03-11T21:30:25.541Z,17.00
2019-03-11T21:32:54.656Z,12.73
2019-03-11T21:35:23.813Z,13.90
2019-03-11T21:37:58.744Z,17.00
2019-03-11T21:40:27.934Z,15.47
2019-03-11T21:42:57.087Z,12.73
2019-03-11T21:45:34.052Z,32.67
2019-03-11T21:47:56.985Z,35.63
2019-03-11T21:50:27.415Z,21.77
2019-03-11T21:52:56.843Z,25.73
2019-03-11T21:55:26.046Z,18.60
2019-03-11T21:57:55.220Z,12.40
2019-03-11T22:00:33.906Z,15.47
2019-03-11T22:02:55.201Z,13.37
2019-03-11T22:05:24.353Z,13.87
2019-03-11T22:07:53.446Z,13.10
2019-03-11T22:10:22.530Z,16.53
2019-03-11T22:12:51.581Z,15.93
2019-03-11T22:15:22.079Z,16.13
2019-03-11T22:17:51.153Z,14.27
2019-03-11T22:20:20.314Z,13.87
2019-03-11T22:22:49.400Z,16.00
2019-03-11T22:25:19.294Z,18.60
2019-03-11T22:27:48.397Z,16.53
2019-03-11T22:30:19.056Z,17.37
2019-03-11T22:32:48.148Z,17.10
2019-03-11T22:35:17.374Z,17.87
2019-03-11T22:37:46.525Z,15.63
2019-03-11T22:40:16.501Z,16.17
2019-03-11T22:42:45.580Z,14.20
2019-03-11T22:45:21.693Z,16.00
2019-03-11T22:47:50.950Z,16.67
2019-03-11T22:50:20.117Z,15.77
2019-03-11T22:52:49.156Z,15.83
2019-03-11T22:55:18.977Z,16.83
2019-03-11T22:57:48.105Z,16.73
2019-03-11T23:00:54.898Z,16.27
2019-03-11T23:03:24.722Z,15.57
2019-03-11T23:05:58.165Z,14.97
2019-03-11T23:08:24.690Z,15.83
2019-03-11T23:10:53.746Z,17.40
2019-03-11T23:13:22.913Z,16.13
2019-03-11T23:15:51.968Z,16.73
2019-03-11T23:18:21.033Z,15.57
2019-03-11T23:20:50.490Z,16.80
2019-03-11T23:23:19.559Z,15.13
2019-03-11T23:25:48.625Z,17.27
2019-03-11T23:28:17.693Z,15.63
2019-03-11T23:30:46.773Z,17.10
2019-03-11T23:33:15.825Z,16.87
2019-03-11T23:35:45.003Z,16.10
2019-03-11T23:38:14.075Z,17.30
2019-03-11T23:40:43.166Z,18.30
2019-03-11T23:43:12.235Z,20.83
2019-03-11T23:45:41.338Z,22.77
2019-03-11T23:48:10.487Z,22.10
2019-03-11T23:50:39.563Z,21.33
2019-03-11T23:53:08.634Z,22.63
2019-03-11T23:55:37.689Z,25.47
2019-03-11T23:58:06.887Z,24.87
